Terminal Aerodrome Forecast
Issued by NWS Shreveport, LA

Home | Current Version | Previous Version | Text Only | Print | Product List | Glossary On
Versions: 1 2 3 4 5 6 7 8 9 10 11 12 13
000
FTUS44 KSHV 161100
TAFGGG
TAF
KGGG 161120Z 1612/1712 VRB03KT P6SM VCSH BKN120
     FM161800 10006KT P6SM SCT045
     FM170000 12004KT P6SM BKN250=

USA.gov is the U.S. government's official web portal to all federal, state and local government web resources and services.